createdAt,value
2019-01-31T00:01:30.250Z,0.30
2019-01-31T00:04:23.501Z,0.30
2019-01-31T00:07:19.892Z,0.30
2019-01-31T00:10:36.384Z,0.30
2019-01-31T00:13:42.487Z,0.30
2019-01-31T00:16:43.763Z,0.30
2019-01-31T00:19:47.449Z,0.30
2019-01-31T00:22:46.811Z,0.30
2019-01-31T00:25:41.818Z,0.30
2019-01-31T00:28:41.928Z,0.30
2019-01-31T00:31:51.209Z,0.30
2019-01-31T00:34:51.427Z,0.30
2019-01-31T00:37:39.982Z,0.30
2019-01-31T00:40:39.935Z,0.20
2019-01-31T00:43:41.273Z,0.30
2019-01-31T00:46:44.357Z,0.20
2019-01-31T00:49:34.949Z,0.20
2019-01-31T00:53:01.141Z,0.20
2019-01-31T00:56:01.368Z,0.20
2019-01-31T00:59:06.851Z,0.20
2019-01-31T01:02:08.951Z,0.20
2019-01-31T01:05:32.064Z,0.20
2019-01-31T01:08:26.477Z,0.10
2019-01-31T01:11:33.269Z,0.10
2019-01-31T01:14:43.622Z,0.10
2019-01-31T01:17:40.461Z,0.10
2019-01-31T01:20:34.107Z,0.10
2019-01-31T01:23:28.396Z,0.10
2019-01-31T01:26:29.604Z,0.10
2019-01-31T01:29:32.434Z,0.10
2019-01-31T01:32:26.270Z,0.10
2019-01-31T01:35:34.095Z,0.10
2019-01-31T01:38:16.127Z,0.10
2019-01-31T01:41:38.408Z,0.00
2019-01-31T01:44:18.123Z,0.00
2019-01-31T01:47:03.872Z,0.00
2019-01-31T01:49:47.547Z,0.00
2019-01-31T01:53:02.178Z,0.00
2019-01-31T01:55:51.904Z,0.00
2019-01-31T01:58:41.925Z,0.00
2019-01-31T02:01:36.308Z,0.00
2019-01-31T02:04:18.021Z,0.00
2019-01-31T02:07:14.050Z,0.00
2019-01-31T02:10:33.955Z,0.10
2019-01-31T02:13:33.717Z,0.10
2019-01-31T02:16:42.311Z,0.10
2019-01-31T02:19:55.914Z,0.10
2019-01-31T02:23:25.551Z,0.10
2019-01-31T02:26:46.954Z,0.10
2019-01-31T02:29:40.851Z,0.00
2019-01-31T02:32:45.124Z,0.10
2019-01-31T02:36:06.858Z,0.10
2019-01-31T02:39:05.814Z,0.00
2019-01-31T02:42:03.351Z,0.00
2019-01-31T02:45:16.765Z,0.00
2019-01-31T02:48:29.190Z,0.00
2019-01-31T02:51:26.957Z,0.00
2019-01-31T02:54:28.388Z,0.00
2019-01-31T02:57:40.724Z,0.00
2019-01-31T03:00:37.306Z,0.10
2019-01-31T03:03:46.289Z,0.10
2019-01-31T03:06:52.924Z,0.10
2019-01-31T03:09:54.863Z,0.00
2019-01-31T03:12:52.477Z,0.10
2019-01-31T03:15:39.208Z,0.10
2019-01-31T03:18:55.653Z,0.10
2019-01-31T03:22:17.324Z,0.10
2019-01-31T03:25:03.845Z,0.10
2019-01-31T03:28:14.547Z,0.10
2019-01-31T03:31:40.377Z,0.10
2019-01-31T03:34:56.679Z,0.10
2019-01-31T03:37:35.882Z,0.20
2019-01-31T03:40:29.367Z,0.20
2019-01-31T03:43:33.965Z,0.30
2019-01-31T03:46:27.518Z,0.30
2019-01-31T03:49:05.625Z,0.40
2019-01-31T03:52:16.551Z,0.40
2019-01-31T03:55:03.978Z,0.40
2019-01-31T03:58:01.797Z,0.40
2019-01-31T04:00:45.642Z,0.40
2019-01-31T04:03:27.789Z,0.40
2019-01-31T04:06:10.883Z,0.50
2019-01-31T04:08:40.323Z,0.50
2019-01-31T04:11:10.617Z,0.50
2019-01-31T04:13:40.016Z,0.50
2019-01-31T04:16:09.345Z,0.50
2019-01-31T04:18:38.820Z,0.50
2019-01-31T04:21:08.183Z,0.50
2019-01-31T04:23:37.844Z,0.50
2019-01-31T04:26:09.389Z,0.50
2019-01-31T04:28:39.397Z,0.50
2019-01-31T04:31:08.827Z,0.50
2019-01-31T04:33:38.432Z,0.50
2019-01-31T04:36:08.118Z,0.50
2019-01-31T04:38:37.998Z,0.50
2019-01-31T04:41:07.649Z,0.50
2019-01-31T04:43:37.137Z,0.50
2019-01-31T04:46:06.559Z,0.50
2019-01-31T04:48:36.189Z,0.50
2019-01-31T04:51:05.663Z,0.60
2019-01-31T04:53:35.178Z,0.60
2019-01-31T04:56:04.714Z,0.60
2019-01-31T04:58:34.495Z,0.50
2019-01-31T05:01:05.261Z,0.60
2019-01-31T05:03:34.608Z,0.60
2019-01-31T05:06:04.133Z,0.60
2019-01-31T05:08:33.851Z,0.50
2019-01-31T05:11:03.286Z,0.50
2019-01-31T05:13:32.775Z,0.50
2019-01-31T05:16:03.842Z,0.60
2019-01-31T05:18:33.893Z,0.60
2019-01-31T05:21:03.342Z,0.60
2019-01-31T05:23:32.857Z,0.60
2019-01-31T05:26:02.600Z,0.50
2019-01-31T05:28:32.063Z,0.60
2019-01-31T05:31:01.631Z,0.50
2019-01-31T05:33:31.079Z,0.50
2019-01-31T05:36:00.552Z,0.50
2019-01-31T05:38:30.007Z,0.60
2019-01-31T05:40:59.549Z,0.60
2019-01-31T05:43:29.426Z,0.60
2019-01-31T05:45:59.085Z,0.60
2019-01-31T05:48:28.467Z,0.60
2019-01-31T05:50:57.916Z,0.60
2019-01-31T05:53:27.596Z,0.60
2019-01-31T05:55:57.142Z,0.60
2019-01-31T05:58:26.807Z,0.60
2019-01-31T06:00:56.306Z,0.60
2019-01-31T06:03:25.837Z,0.60
2019-01-31T06:05:55.333Z,0.60
2019-01-31T06:08:24.806Z,0.60
2019-01-31T06:10:54.572Z,0.60
2019-01-31T06:13:24.027Z,0.60
2019-01-31T06:15:53.503Z,0.60
2019-01-31T06:18:23.213Z,0.60
2019-01-31T06:20:52.561Z,0.60
2019-01-31T06:23:22.035Z,0.70
2019-01-31T06:25:51.518Z,0.60
2019-01-31T06:28:21.455Z,0.60
2019-01-31T06:30:50.953Z,0.70
2019-01-31T06:33:20.977Z,0.60
2019-01-31T06:35:51.349Z,0.60
2019-01-31T06:38:21.175Z,0.70
2019-01-31T06:40:50.748Z,0.60
2019-01-31T06:43:20.201Z,0.70
2019-01-31T06:45:49.645Z,0.70
2019-01-31T06:48:19.092Z,0.70
2019-01-31T06:50:48.563Z,0.70
2019-01-31T06:53:18.067Z,0.70
2019-01-31T06:55:47.495Z,0.70
2019-01-31T06:58:16.937Z,0.70
2019-01-31T07:00:46.401Z,0.80
2019-01-31T07:03:15.897Z,0.70
2019-01-31T07:05:45.354Z,0.80
2019-01-31T07:08:14.827Z,0.70
2019-01-31T07:10:44.304Z,0.70
2019-01-31T07:13:13.732Z,0.70
2019-01-31T07:15:43.127Z,0.70
2019-01-31T07:18:13.040Z,0.70
2019-01-31T07:20:42.551Z,0.70
2019-01-31T07:23:11.971Z,0.70
2019-01-31T07:25:41.571Z,0.70
2019-01-31T07:28:11.050Z,0.70
2019-01-31T07:30:40.475Z,0.70
2019-01-31T07:33:09.985Z,0.70
2019-01-31T07:35:39.819Z,0.60
2019-01-31T07:38:09.256Z,0.60
2019-01-31T07:40:38.741Z,0.60
2019-01-31T07:43:08.182Z,0.60
2019-01-31T07:45:38.003Z,0.60
2019-01-31T07:48:07.479Z,0.60
2019-01-31T07:50:36.953Z,0.60
2019-01-31T07:53:06.523Z,0.60
2019-01-31T07:55:35.964Z,0.60
2019-01-31T07:58:05.855Z,0.60
2019-01-31T08:00:35.649Z,0.70
2019-01-31T08:03:05.481Z,0.70
2019-01-31T08:05:34.956Z,0.60
2019-01-31T08:08:04.873Z,0.70
2019-01-31T08:10:37.234Z,0.70
2019-01-31T08:13:06.984Z,0.60
2019-01-31T08:15:36.448Z,0.60
2019-01-31T08:18:06.148Z,0.60
2019-01-31T08:20:35.641Z,0.60
2019-01-31T08:23:05.335Z,0.60
2019-01-31T08:25:34.813Z,0.70
2019-01-31T08:28:05.502Z,0.70
2019-01-31T08:30:37.849Z,0.70
2019-01-31T08:33:07.901Z,0.70
2019-01-31T08:35:37.560Z,0.70
2019-01-31T08:38:07.067Z,0.70
2019-01-31T08:40:36.572Z,0.70
2019-01-31T08:43:06.091Z,0.80
2019-01-31T08:45:35.605Z,0.80
2019-01-31T08:48:05.436Z,0.80
2019-01-31T08:50:34.921Z,0.80
2019-01-31T08:53:04.537Z,0.80
2019-01-31T08:55:34.011Z,0.80
2019-01-31T08:58:03.476Z,0.80
2019-01-31T09:00:32.962Z,0.70
2019-01-31T09:03:02.375Z,0.80
2019-01-31T09:05:31.818Z,0.70
2019-01-31T09:08:01.253Z,0.80
2019-01-31T09:10:33.269Z,0.80
2019-01-31T09:13:05.122Z,0.70
2019-01-31T09:15:34.562Z,0.70
2019-01-31T09:18:04.149Z,0.80
2019-01-31T09:20:55.862Z,0.80
2019-01-31T09:24:02.465Z,0.80
2019-01-31T09:27:26.497Z,0.80
2019-01-31T09:30:28.892Z,0.70
2019-01-31T09:33:48.907Z,0.70
2019-01-31T09:36:48.181Z,0.70
2019-01-31T09:39:51.825Z,0.70
2019-01-31T09:42:45.375Z,0.80
2019-01-31T09:45:51.679Z,0.80
2019-01-31T09:48:46.045Z,0.80
2019-01-31T09:51:46.849Z,0.80
2019-01-31T09:54:25.943Z,0.80
2019-01-31T09:57:24.095Z,0.90
2019-01-31T10:00:36.864Z,0.90
2019-01-31T10:03:46.628Z,0.90
2019-01-31T10:06:36.709Z,0.90
2019-01-31T10:10:18.829Z,1.00
2019-01-31T10:13:13.036Z,1.00
2019-01-31T10:16:23.548Z,1.00
2019-01-31T10:19:19.464Z,1.00
2019-01-31T10:22:27.123Z,1.00
2019-01-31T10:25:41.018Z,1.10
2019-01-31T10:28:50.137Z,1.10
2019-01-31T10:32:19.444Z,1.10
2019-01-31T10:35:09.443Z,1.10
2019-01-31T10:37:53.427Z,1.10
2019-01-31T10:40:47.653Z,1.10
2019-01-31T10:47:48.779Z,0.90
2019-01-31T10:51:08.673Z,0.90
2019-01-31T10:54:25.671Z,0.90
2019-01-31T10:57:45.624Z,0.90
2019-01-31T11:00:44.818Z,0.90
2019-01-31T11:03:33.860Z,1.00
2019-01-31T11:06:42.642Z,1.00
2019-01-31T11:09:45.466Z,1.00
2019-01-31T11:13:00.256Z,1.00
2019-01-31T11:16:08.756Z,1.10
2019-01-31T11:19:15.821Z,1.00
2019-01-31T11:22:41.444Z,1.00
2019-01-31T11:26:13.323Z,1.00
2019-01-31T11:29:34.747Z,1.00
2019-01-31T11:32:54.135Z,1.00
2019-01-31T11:35:53.427Z,1.00
2019-01-31T11:38:48.243Z,0.90
2019-01-31T11:41:48.964Z,0.90
2019-01-31T11:45:29.947Z,1.00
2019-01-31T11:48:29.763Z,1.00
2019-01-31T11:51:52.107Z,0.90
2019-01-31T11:55:14.800Z,0.90
2019-01-31T11:58:25.527Z,1.00
2019-01-31T12:00:55.160Z,1.00
2019-01-31T12:03:25.067Z,1.00
2019-01-31T12:05:54.609Z,1.00
2019-01-31T12:08:24.053Z,1.00
2019-01-31T12:10:53.898Z,1.10
2019-01-31T12:13:23.900Z,1.10
2019-01-31T12:15:55.200Z,1.10
2019-01-31T12:18:24.761Z,1.20
2019-01-31T12:20:54.176Z,1.10
2019-01-31T12:23:23.981Z,1.10
2019-01-31T12:25:53.503Z,1.10
2019-01-31T12:28:22.949Z,1.20
2019-01-31T12:30:52.384Z,1.10
2019-01-31T12:33:21.858Z,1.10
2019-01-31T12:35:51.313Z,1.20
2019-01-31T12:38:20.774Z,1.20
2019-01-31T12:40:50.292Z,1.20
2019-01-31T12:43:19.894Z,1.50
2019-01-31T12:45:49.508Z,1.80
2019-01-31T12:48:18.943Z,2.00
2019-01-31T12:50:48.914Z,2.30
2019-01-31T12:53:18.543Z,2.50
2019-01-31T12:55:48.158Z,2.40
2019-01-31T12:58:17.738Z,2.70
2019-01-31T13:00:47.262Z,2.80
2019-01-31T13:03:16.766Z,3.00
2019-01-31T13:05:46.200Z,3.20
2019-01-31T13:08:15.681Z,3.40
2019-01-31T13:10:45.208Z,3.50
2019-01-31T13:13:14.866Z,3.60
2019-01-31T13:15:44.807Z,3.80
2019-01-31T13:18:14.355Z,4.10
2019-01-31T13:20:43.795Z,4.20
2019-01-31T13:23:13.309Z,4.50
2019-01-31T13:25:43.226Z,4.70
2019-01-31T13:28:12.708Z,5.00
2019-01-31T13:30:42.146Z,5.20
2019-01-31T13:33:11.634Z,5.20
2019-01-31T13:35:41.180Z,5.30
2019-01-31T13:38:10.790Z,5.40
2019-01-31T13:40:40.494Z,5.50
2019-01-31T13:43:09.911Z,5.40
2019-01-31T13:45:39.456Z,5.40
2019-01-31T13:48:27.184Z,5.50
2019-01-31T13:50:56.640Z,5.50
2019-01-31T13:53:26.151Z,5.50
2019-01-31T13:55:55.670Z,5.40
2019-01-31T13:58:25.279Z,5.60
2019-01-31T14:00:55.143Z,5.80
2019-01-31T14:03:24.710Z,5.90
2019-01-31T14:05:54.194Z,5.90
2019-01-31T14:08:23.656Z,6.10
2019-01-31T14:10:53.129Z,6.00
2019-01-31T14:13:22.621Z,6.00
2019-01-31T14:18:28.610Z,5.80
2019-01-31T14:20:58.106Z,5.70
2019-01-31T14:23:27.565Z,5.80
2019-01-31T14:25:57.123Z,6.00
2019-01-31T14:28:26.694Z,6.10
2019-01-31T14:30:56.148Z,6.10
2019-01-31T14:33:26.766Z,6.00
2019-01-31T14:35:58.743Z,6.10
2019-01-31T14:38:28.686Z,6.20
2019-01-31T14:40:58.484Z,6.30
2019-01-31T14:43:27.924Z,6.40
2019-01-31T14:45:57.681Z,6.40
2019-01-31T14:48:27.084Z,6.10
2019-01-31T14:50:56.557Z,5.90
2019-01-31T14:53:26.051Z,5.70
2019-01-31T14:55:55.734Z,5.50
2019-01-31T14:58:25.382Z,5.30
2019-01-31T15:00:54.804Z,5.10
2019-01-31T15:03:24.266Z,4.80
2019-01-31T15:05:53.809Z,4.70
2019-01-31T15:08:23.299Z,4.50
2019-01-31T15:10:52.730Z,4.50
2019-01-31T15:13:22.256Z,4.40
2019-01-31T15:15:51.737Z,4.30
2019-01-31T15:18:21.733Z,4.20
2019-01-31T15:20:51.182Z,4.10
2019-01-31T15:23:20.616Z,3.90
2019-01-31T15:25:50.104Z,3.80
2019-01-31T15:28:19.758Z,3.70
2019-01-31T15:30:49.255Z,3.70
2019-01-31T15:33:19.486Z,3.60
2019-01-31T15:35:48.969Z,3.60
2019-01-31T15:38:18.631Z,3.50
2019-01-31T15:40:49.370Z,3.40
2019-01-31T15:43:18.834Z,3.40
2019-01-31T15:45:48.254Z,3.40
2019-01-31T15:48:18.238Z,3.50
2019-01-31T15:50:47.684Z,3.40
2019-01-31T15:53:17.138Z,3.30
2019-01-31T15:55:46.612Z,3.30
2019-01-31T15:58:16.076Z,3.20
2019-01-31T16:00:51.031Z,3.20
2019-01-31T16:03:22.476Z,3.10
2019-01-31T16:05:52.523Z,3.00
2019-01-31T16:08:22.725Z,3.10
2019-01-31T16:10:52.191Z,3.00
2019-01-31T16:13:21.641Z,2.90
2019-01-31T16:15:51.195Z,2.80
2019-01-31T16:18:20.639Z,2.70
2019-01-31T16:20:50.450Z,2.70
2019-01-31T16:23:20.000Z,2.60
2019-01-31T16:25:49.456Z,2.50
2019-01-31T16:28:18.937Z,2.50
2019-01-31T16:30:48.462Z,2.40
2019-01-31T16:33:17.891Z,2.40
2019-01-31T16:35:48.547Z,2.40
2019-01-31T16:38:17.996Z,2.30
2019-01-31T16:40:47.508Z,2.30
2019-01-31T16:43:17.066Z,2.20
2019-01-31T16:45:46.646Z,2.20
2019-01-31T16:48:16.252Z,2.10
2019-01-31T16:50:45.988Z,2.00
2019-01-31T16:53:15.426Z,2.00
2019-01-31T16:55:44.880Z,2.00
2019-01-31T16:58:14.446Z,2.00
2019-01-31T17:00:44.029Z,1.90
2019-01-31T17:03:13.945Z,1.90
2019-01-31T17:05:43.536Z,1.90
2019-01-31T17:08:13.192Z,1.80
2019-01-31T17:10:42.765Z,1.80
2019-01-31T17:13:12.233Z,1.70
2019-01-31T17:15:41.735Z,1.70
2019-01-31T17:18:11.507Z,1.60
2019-01-31T17:20:45.491Z,1.60
2019-01-31T17:23:15.149Z,1.60
2019-01-31T17:25:44.638Z,1.60
2019-01-31T17:28:14.152Z,1.50
2019-01-31T17:30:43.611Z,1.60
2019-01-31T17:33:13.075Z,1.60
2019-01-31T17:35:42.575Z,1.50
2019-01-31T17:38:12.311Z,1.60
2019-01-31T17:40:42.846Z,1.60
2019-01-31T17:43:13.288Z,1.50
2019-01-31T17:45:43.087Z,1.50
2019-01-31T17:48:16.283Z,1.60
2019-01-31T17:50:46.587Z,1.50
2019-01-31T17:53:16.555Z,1.50
2019-01-31T17:55:46.156Z,1.50
2019-01-31T17:58:15.623Z,1.50
2019-01-31T18:00:48.632Z,1.50
2019-01-31T18:03:18.179Z,1.50
2019-01-31T18:05:47.711Z,1.50
2019-01-31T18:08:17.187Z,1.40
2019-01-31T18:10:46.704Z,1.40
2019-01-31T18:13:16.186Z,1.40
2019-01-31T18:15:45.657Z,1.30
2019-01-31T18:18:15.133Z,1.30
2019-01-31T18:20:44.640Z,1.40
2019-01-31T18:23:14.081Z,1.30
2019-01-31T18:25:43.934Z,1.40
2019-01-31T18:28:13.761Z,1.40
2019-01-31T18:30:43.555Z,1.40
2019-01-31T18:33:13.003Z,1.30
2019-01-31T18:35:42.477Z,1.30
2019-01-31T18:38:12.202Z,1.30
2019-01-31T18:40:41.675Z,1.30
2019-01-31T18:43:11.215Z,1.30
2019-01-31T18:45:40.766Z,1.30
2019-01-31T18:48:10.644Z,1.30
2019-01-31T18:50:42.543Z,1.30
2019-01-31T18:53:12.019Z,1.30
2019-01-31T18:55:41.484Z,1.30
2019-01-31T18:58:10.941Z,1.30
2019-01-31T19:00:51.080Z,1.30
2019-01-31T19:03:20.797Z,1.30
2019-01-31T19:05:50.481Z,1.30
2019-01-31T19:08:20.749Z,1.40
2019-01-31T19:10:50.531Z,1.40
2019-01-31T19:13:19.992Z,1.40
2019-01-31T19:15:49.853Z,1.40
2019-01-31T19:18:19.300Z,1.40
2019-01-31T19:20:48.811Z,1.40
2019-01-31T19:23:18.328Z,1.30
2019-01-31T19:25:47.755Z,1.30
2019-01-31T19:28:17.325Z,1.40
2019-01-31T19:30:47.066Z,1.30
2019-01-31T19:33:16.529Z,1.40
2019-01-31T19:35:46.135Z,1.30
2019-01-31T19:38:15.579Z,1.30
2019-01-31T19:40:46.475Z,1.20
2019-01-31T19:43:15.945Z,1.20
2019-01-31T19:45:50.132Z,1.10
2019-01-31T19:48:20.033Z,1.10
2019-01-31T19:50:49.535Z,1.10
2019-01-31T19:53:19.169Z,1.10
2019-01-31T19:55:48.703Z,1.10
2019-01-31T19:58:18.302Z,1.00
2019-01-31T20:00:47.927Z,1.10
2019-01-31T20:03:17.418Z,1.10
2019-01-31T20:05:47.130Z,1.00
2019-01-31T20:08:16.585Z,1.00
2019-01-31T20:10:46.169Z,1.00
2019-01-31T20:13:15.647Z,0.90
2019-01-31T20:15:45.095Z,1.00
2019-01-31T20:18:14.701Z,1.00
2019-01-31T20:20:44.258Z,1.00
2019-01-31T20:23:13.726Z,1.00
2019-01-31T20:25:43.502Z,1.00
2019-01-31T20:28:13.049Z,1.00
2019-01-31T20:30:42.509Z,1.00
2019-01-31T20:33:12.043Z,1.00
2019-01-31T20:35:41.577Z,0.90
2019-01-31T20:38:16.828Z,0.80
2019-01-31T20:40:46.595Z,0.80
2019-01-31T20:43:16.097Z,0.80
2019-01-31T20:45:45.531Z,0.70
2019-01-31T20:48:14.973Z,0.70
2019-01-31T20:50:44.432Z,0.70
2019-01-31T20:53:13.889Z,0.60
2019-01-31T20:55:43.361Z,0.60
2019-01-31T20:58:12.829Z,0.60
2019-01-31T21:00:46.851Z,0.60
2019-01-31T21:03:16.280Z,0.60
2019-01-31T21:05:45.724Z,0.60
2019-01-31T21:08:15.826Z,0.50
2019-01-31T21:10:45.848Z,0.50
2019-01-31T21:13:15.283Z,0.50
2019-01-31T21:15:44.764Z,0.40
2019-01-31T21:18:14.683Z,0.40
2019-01-31T21:20:44.163Z,0.30
2019-01-31T21:23:13.758Z,0.40
2019-01-31T21:25:43.217Z,0.40
2019-01-31T21:28:12.693Z,0.40
2019-01-31T21:30:42.710Z,0.40
2019-01-31T21:33:12.190Z,0.50
2019-01-31T21:35:41.867Z,0.50
2019-01-31T21:38:11.317Z,0.50
2019-01-31T21:40:41.134Z,0.40
2019-01-31T21:43:10.704Z,0.40
2019-01-31T21:45:40.465Z,0.50
2019-01-31T21:48:11.047Z,0.50
2019-01-31T21:50:40.484Z,0.50
2019-01-31T21:53:10.643Z,0.50
2019-01-31T21:55:40.079Z,0.50
2019-01-31T21:58:09.833Z,0.50
2019-01-31T22:00:39.485Z,0.60
2019-01-31T22:03:30.822Z,0.50
2019-01-31T22:06:01.339Z,0.50
2019-01-31T22:08:30.794Z,0.50
2019-01-31T22:11:01.439Z,0.50
2019-01-31T22:13:31.098Z,0.50
2019-01-31T22:16:00.516Z,0.50
2019-01-31T22:18:30.092Z,0.60
2019-01-31T22:20:59.617Z,0.50
2019-01-31T22:23:29.418Z,0.50
2019-01-31T22:25:58.874Z,0.60
2019-01-31T22:28:28.555Z,0.60
2019-01-31T22:30:58.043Z,0.50
2019-01-31T22:33:27.499Z,0.60
2019-01-31T22:35:57.051Z,0.60
2019-01-31T22:38:26.551Z,0.60
2019-01-31T22:40:56.075Z,0.60
2019-01-31T22:43:25.499Z,0.60
2019-01-31T22:45:55.284Z,0.60
2019-01-31T22:48:24.721Z,0.50
2019-01-31T22:50:54.609Z,0.50
2019-01-31T22:53:24.110Z,0.40
2019-01-31T22:55:53.519Z,0.40
2019-01-31T22:58:23.087Z,0.30
2019-01-31T23:01:27.375Z,0.30
2019-01-31T23:03:56.847Z,0.30
2019-01-31T23:06:26.820Z,0.30
2019-01-31T23:09:15.742Z,0.30
2019-01-31T23:11:45.236Z,0.20
2019-01-31T23:14:14.661Z,0.10
2019-01-31T23:16:44.607Z,0.10
2019-01-31T23:19:14.040Z,0.00
2019-01-31T23:21:43.495Z,0.00
2019-01-31T23:24:13.317Z,-0.10
2019-01-31T23:26:42.806Z,-0.10
2019-01-31T23:29:12.451Z,-0.10
2019-01-31T23:31:41.890Z,-0.10
2019-01-31T23:34:11.563Z,-0.20
2019-01-31T23:36:41.065Z,-0.10
2019-01-31T23:39:11.722Z,-0.10
2019-01-31T23:41:41.176Z,-0.20
2019-01-31T23:44:10.600Z,-0.30
2019-01-31T23:46:40.071Z,-0.30
2019-01-31T23:49:09.538Z,-0.30
2019-01-31T23:51:39.422Z,-0.30
2019-01-31T23:54:08.890Z,-0.30
2019-01-31T23:56:38.348Z,-0.40
2019-01-31T23:59:08.070Z,-0.50
